< < Back
Terminal Aerodrome Forecast


Current Version              Previous Versions:   1  2  3  4  5  6  7  8  9  

Terminal Aerodrome Forecast

166
FTUS44 KOHX 300400 CCA
TAFBNA
TAF COR
KBNA 300404Z 3004/3024 34010G18KT P6SM -DZ BKN025 OVC035
     FM300700 34012KT P6SM OVC035
     FM301400 34008KT P6SM OVC050
     FM301600 36010G18KT P6SM SCT050=



Latest METAR

047
SAUS70 KWBC 300900 RRB
MTRBNA
METAR KBNA 300853Z 33010KT 10SM BKN025 OVC030 03/M02 A3037 RMK AO2
SLP283 T00331017 53010


USA.gov is the U.S. government's official web portal to all federal, state and local government web resources and services.